National Weather Service Raw Text Product

Displaying AFOS PIL: TAFALO Received: 2018-03-08 23:39 UTC


804 
FTUS43 KDMX 082339
TAFALO
TAF
KALO 082339Z 0900/0924 VRB03KT P6SM FEW250
     FM091000 09005KT P6SM BKN150=